sensor_id;sensor_type;location;lat;lon;timestamp;P1;durP1;ratioP1;P2;durP2;ratioP2
7426;SDS011;3755;59.316;18.092;2024-01-30T00:01:37;25.73;;;10.40;;
7426;SDS011;3755;59.316;18.092;2024-01-30T00:04:04;25.83;;;11.17;;
7426;SDS011;3755;59.316;18.092;2024-01-30T00:06:31;31.87;;;11.63;;
7426;SDS011;3755;59.316;18.092;2024-01-30T00:08:58;26.00;;;9.93;;
7426;SDS011;3755;59.316;18.092;2024-01-30T00:11:28;35.57;;;11.37;;
7426;SDS011;3755;59.316;18.092;2024-01-30T00:13:55;27.87;;;11.33;;
7426;SDS011;3755;59.316;18.092;2024-01-30T00:16:23;30.43;;;11.67;;
7426;SDS011;3755;59.316;18.092;2024-01-30T00:18:52;41.40;;;12.57;;
7426;SDS011;3755;59.316;18.092;2024-01-30T00:21:19;29.17;;;11.80;;
7426;SDS011;3755;59.316;18.092;2024-01-30T00:23:47;27.43;;;12.57;;
7426;SDS011;3755;59.316;18.092;2024-01-30T00:26:19;32.17;;;11.50;;
7426;SDS011;3755;59.316;18.092;2024-01-30T00:28:49;28.53;;;11.33;;
7426;SDS011;3755;59.316;18.092;2024-01-30T00:31:17;35.37;;;11.47;;
7426;SDS011;3755;59.316;18.092;2024-01-30T00:33:44;29.33;;;11.53;;
7426;SDS011;3755;59.316;18.092;2024-01-30T00:36:13;35.37;;;11.73;;
7426;SDS011;3755;59.316;18.092;2024-01-30T00:38:40;30.13;;;11.23;;
7426;SDS011;3755;59.316;18.092;2024-01-30T00:41:07;26.83;;;10.97;;
7426;SDS011;3755;59.316;18.092;2024-01-30T00:43:36;28.00;;;11.33;;
7426;SDS011;3755;59.316;18.092;2024-01-30T00:46:03;27.70;;;11.33;;
7426;SDS011;3755;59.316;18.092;2024-01-30T00:48:30;29.07;;;11.00;;
7426;SDS011;3755;59.316;18.092;2024-01-30T00:50:57;26.60;;;11.17;;
7426;SDS011;3755;59.316;18.092;2024-01-30T00:53:26;25.70;;;11.50;;
7426;SDS011;3755;59.316;18.092;2024-01-30T00:55:53;32.47;;;11.60;;
7426;SDS011;3755;59.316;18.092;2024-01-30T00:58:20;26.20;;;10.83;;
7426;SDS011;3755;59.316;18.092;2024-01-30T01:00:47;22.30;;;10.63;;
7426;SDS011;3755;59.316;18.092;2024-01-30T01:03:14;30.93;;;12.00;;
7426;SDS011;3755;59.316;18.092;2024-01-30T01:05:42;34.37;;;11.53;;
7426;SDS011;3755;59.316;18.092;2024-01-30T01:08:09;28.20;;;11.40;;
7426;SDS011;3755;59.316;18.092;2024-01-30T01:10:37;27.00;;;10.90;;
7426;SDS011;3755;59.316;18.092;2024-01-30T01:13:04;32.37;;;10.57;;
7426;SDS011;3755;59.316;18.092;2024-01-30T01:15:31;25.53;;;11.23;;
7426;SDS011;3755;59.316;18.092;2024-01-30T01:17:58;30.03;;;11.03;;
7426;SDS011;3755;59.316;18.092;2024-01-30T01:20:26;25.67;;;11.27;;
7426;SDS011;3755;59.316;18.092;2024-01-30T01:22:53;30.57;;;11.43;;
7426;SDS011;3755;59.316;18.092;2024-01-30T01:25:20;32.43;;;11.83;;
7426;SDS011;3755;59.316;18.092;2024-01-30T01:27:49;34.37;;;11.90;;
7426;SDS011;3755;59.316;18.092;2024-01-30T01:30:17;25.63;;;11.77;;
7426;SDS011;3755;59.316;18.092;2024-01-30T01:32:47;30.00;;;11.57;;
7426;SDS011;3755;59.316;18.092;2024-01-30T01:35:23;29.30;;;10.97;;
7426;SDS011;3755;59.316;18.092;2024-01-30T01:37:53;26.23;;;11.30;;
7426;SDS011;3755;59.316;18.092;2024-01-30T01:40:22;26.70;;;10.83;;
7426;SDS011;3755;59.316;18.092;2024-01-30T01:42:51;25.73;;;10.00;;
7426;SDS011;3755;59.316;18.092;2024-01-30T01:45:18;27.57;;;10.73;;
7426;SDS011;3755;59.316;18.092;2024-01-30T01:47:47;30.60;;;10.90;;
7426;SDS011;3755;59.316;18.092;2024-01-30T01:50:17;23.47;;;10.30;;
7426;SDS011;3755;59.316;18.092;2024-01-30T01:52:46;31.23;;;11.10;;
7426;SDS011;3755;59.316;18.092;2024-01-30T01:55:14;26.03;;;10.53;;
7426;SDS011;3755;59.316;18.092;2024-01-30T01:57:43;26.53;;;9.90;;
7426;SDS011;3755;59.316;18.092;2024-01-30T02:00:13;26.23;;;10.83;;
7426;SDS011;3755;59.316;18.092;2024-01-30T02:02:45;25.60;;;11.37;;
7426;SDS011;3755;59.316;18.092;2024-01-30T02:05:13;28.23;;;10.87;;
7426;SDS011;3755;59.316;18.092;2024-01-30T02:07:41;25.67;;;10.70;;
7426;SDS011;3755;59.316;18.092;2024-01-30T02:10:12;31.77;;;11.73;;
7426;SDS011;3755;59.316;18.092;2024-01-30T02:12:42;25.20;;;10.27;;
7426;SDS011;3755;59.316;18.092;2024-01-30T02:15:13;25.90;;;10.47;;
7426;SDS011;3755;59.316;18.092;2024-01-30T02:17:41;25.03;;;10.13;;
7426;SDS011;3755;59.316;18.092;2024-01-30T02:20:09;30.53;;;11.97;;
7426;SDS011;3755;59.316;18.092;2024-01-30T02:22:38;26.97;;;9.93;;
7426;SDS011;3755;59.316;18.092;2024-01-30T02:25:06;26.23;;;10.57;;
7426;SDS011;3755;59.316;18.092;2024-01-30T02:27:36;28.03;;;10.63;;
7426;SDS011;3755;59.316;18.092;2024-01-30T02:30:06;26.03;;;10.13;;
7426;SDS011;3755;59.316;18.092;2024-01-30T02:32:34;25.23;;;10.60;;
7426;SDS011;3755;59.316;18.092;2024-01-30T02:35:01;28.13;;;10.93;;
7426;SDS011;3755;59.316;18.092;2024-01-30T02:37:28;20.93;;;9.90;;
7426;SDS011;3755;59.316;18.092;2024-01-30T02:39:59;23.37;;;10.80;;
7426;SDS011;3755;59.316;18.092;2024-01-30T02:42:26;22.30;;;10.37;;
7426;SDS011;3755;59.316;18.092;2024-01-30T02:44:55;26.30;;;10.57;;
7426;SDS011;3755;59.316;18.092;2024-01-30T02:47:22;27.43;;;10.80;;
7426;SDS011;3755;59.316;18.092;2024-01-30T02:49:49;27.27;;;11.27;;
7426;SDS011;3755;59.316;18.092;2024-01-30T02:52:16;26.73;;;10.33;;
7426;SDS011;3755;59.316;18.092;2024-01-30T02:54:45;25.83;;;9.67;;
7426;SDS011;3755;59.316;18.092;2024-01-30T02:57:14;25.57;;;10.83;;
7426;SDS011;3755;59.316;18.092;2024-01-30T02:59:41;26.00;;;9.40;;
7426;SDS011;3755;59.316;18.092;2024-01-30T03:02:08;20.67;;;9.10;;
7426;SDS011;3755;59.316;18.092;2024-01-30T03:04:35;20.97;;;10.13;;
7426;SDS011;3755;59.316;18.092;2024-01-30T03:07:01;20.90;;;9.80;;
7426;SDS011;3755;59.316;18.092;2024-01-30T03:09:28;22.90;;;10.13;;
7426;SDS011;3755;59.316;18.092;2024-01-30T03:11:55;22.23;;;8.60;;
7426;SDS011;3755;59.316;18.092;2024-01-30T03:14:23;17.80;;;8.53;;
7426;SDS011;3755;59.316;18.092;2024-01-30T03:16:50;19.53;;;9.47;;
7426;SDS011;3755;59.316;18.092;2024-01-30T03:19:17;22.53;;;9.57;;
7426;SDS011;3755;59.316;18.092;2024-01-30T03:21:44;21.70;;;10.10;;
7426;SDS011;3755;59.316;18.092;2024-01-30T03:24:11;25.10;;;9.40;;
7426;SDS011;3755;59.316;18.092;2024-01-30T03:26:38;19.73;;;9.83;;
7426;SDS011;3755;59.316;18.092;2024-01-30T03:29:05;18.70;;;10.00;;
7426;SDS011;3755;59.316;18.092;2024-01-30T03:31:34;22.57;;;9.93;;
7426;SDS011;3755;59.316;18.092;2024-01-30T03:34:01;18.30;;;8.80;;
7426;SDS011;3755;59.316;18.092;2024-01-30T03:36:28;26.23;;;10.23;;
7426;SDS011;3755;59.316;18.092;2024-01-30T03:38:58;21.70;;;8.83;;
7426;SDS011;3755;59.316;18.092;2024-01-30T03:41:26;26.40;;;11.23;;
7426;SDS011;3755;59.316;18.092;2024-01-30T03:43:54;21.10;;;9.03;;
7426;SDS011;3755;59.316;18.092;2024-01-30T03:46:25;23.70;;;9.70;;
7426;SDS011;3755;59.316;18.092;2024-01-30T03:48:53;29.20;;;10.57;;
7426;SDS011;3755;59.316;18.092;2024-01-30T03:51:20;22.83;;;9.20;;
7426;SDS011;3755;59.316;18.092;2024-01-30T03:53:47;36.93;;;8.73;;
7426;SDS011;3755;59.316;18.092;2024-01-30T03:56:14;41.90;;;9.00;;
7426;SDS011;3755;59.316;18.092;2024-01-30T03:58:42;74.97;;;11.00;;
7426;SDS011;3755;59.316;18.092;2024-01-30T04:01:12;59.93;;;10.37;;
7426;SDS011;3755;59.316;18.092;2024-01-30T04:03:40;97.53;;;12.07;;
7426;SDS011;3755;59.316;18.092;2024-01-30T04:06:10;39.50;;;9.37;;
7426;SDS011;3755;59.316;18.092;2024-01-30T04:08:37;48.10;;;9.20;;
7426;SDS011;3755;59.316;18.092;2024-01-30T04:11:04;79.13;;;10.27;;
7426;SDS011;3755;59.316;18.092;2024-01-30T04:13:32;112.63;;;13.03;;
7426;SDS011;3755;59.316;18.092;2024-01-30T04:15:59;145.90;;;13.97;;
7426;SDS011;3755;59.316;18.092;2024-01-30T04:18:26;73.73;;;11.17;;
7426;SDS011;3755;59.316;18.092;2024-01-30T04:20:53;76.93;;;12.33;;
7426;SDS011;3755;59.316;18.092;2024-01-30T04:23:22;62.53;;;11.47;;
7426;SDS011;3755;59.316;18.092;2024-01-30T04:25:49;112.53;;;14.70;;
7426;SDS011;3755;59.316;18.092;2024-01-30T04:28:16;90.70;;;12.17;;
7426;SDS011;3755;59.316;18.092;2024-01-30T04:30:43;90.10;;;12.23;;
7426;SDS011;3755;59.316;18.092;2024-01-30T04:33:10;86.40;;;11.97;;
7426;SDS011;3755;59.316;18.092;2024-01-30T04:35:37;62.87;;;10.87;;
7426;SDS011;3755;59.316;18.092;2024-01-30T04:38:05;58.10;;;11.00;;
7426;SDS011;3755;59.316;18.092;2024-01-30T04:40:33;95.63;;;13.10;;
7426;SDS011;3755;59.316;18.092;2024-01-30T04:43:00;58.93;;;11.83;;
7426;SDS011;3755;59.316;18.092;2024-01-30T04:45:27;55.83;;;10.93;;
7426;SDS011;3755;59.316;18.092;2024-01-30T04:47:55;92.03;;;13.63;;
7426;SDS011;3755;59.316;18.092;2024-01-30T04:50:22;78.37;;;12.07;;
7426;SDS011;3755;59.316;18.092;2024-01-30T04:52:49;106.43;;;12.07;;
7426;SDS011;3755;59.316;18.092;2024-01-30T04:55:16;54.73;;;11.67;;
7426;SDS011;3755;59.316;18.092;2024-01-30T04:57:45;72.67;;;11.53;;
7426;SDS011;3755;59.316;18.092;2024-01-30T05:00:12;41.43;;;10.00;;
7426;SDS011;3755;59.316;18.092;2024-01-30T05:02:40;44.80;;;10.83;;
7426;SDS011;3755;59.316;18.092;2024-01-30T05:05:07;47.67;;;10.00;;
7426;SDS011;3755;59.316;18.092;2024-01-30T05:07:36;47.23;;;9.80;;
7426;SDS011;3755;59.316;18.092;2024-01-30T05:10:03;37.87;;;9.27;;
7426;SDS011;3755;59.316;18.092;2024-01-30T05:12:33;42.80;;;10.33;;
7426;SDS011;3755;59.316;18.092;2024-01-30T05:15:03;32.17;;;9.57;;
7426;SDS011;3755;59.316;18.092;2024-01-30T05:17:38;41.27;;;9.50;;
7426;SDS011;3755;59.316;18.092;2024-01-30T05:20:06;23.60;;;8.70;;
7426;SDS011;3755;59.316;18.092;2024-01-30T05:22:36;16.07;;;7.70;;
7426;SDS011;3755;59.316;18.092;2024-01-30T05:25:09;12.40;;;7.00;;
7426;SDS011;3755;59.316;18.092;2024-01-30T05:27:37;15.67;;;7.70;;
7426;SDS011;3755;59.316;18.092;2024-01-30T05:30:06;13.13;;;7.37;;
7426;SDS011;3755;59.316;18.092;2024-01-30T05:32:34;12.07;;;7.17;;
7426;SDS011;3755;59.316;18.092;2024-01-30T05:35:01;17.23;;;7.40;;
7426;SDS011;3755;59.316;18.092;2024-01-30T05:37:29;14.47;;;7.63;;
7426;SDS011;3755;59.316;18.092;2024-01-30T05:40:00;12.63;;;7.40;;
7426;SDS011;3755;59.316;18.092;2024-01-30T05:42:28;18.07;;;8.37;;
7426;SDS011;3755;59.316;18.092;2024-01-30T05:44:55;19.57;;;8.63;;
7426;SDS011;3755;59.316;18.092;2024-01-30T05:47:23;17.63;;;8.73;;
7426;SDS011;3755;59.316;18.092;2024-01-30T05:49:51;17.33;;;9.30;;
7426;SDS011;3755;59.316;18.092;2024-01-30T05:52:18;24.73;;;9.63;;
7426;SDS011;3755;59.316;18.092;2024-01-30T05:54:46;26.43;;;9.60;;
7426;SDS011;3755;59.316;18.092;2024-01-30T05:57:13;17.73;;;7.90;;
7426;SDS011;3755;59.316;18.092;2024-01-30T05:59:40;17.23;;;8.70;;
7426;SDS011;3755;59.316;18.092;2024-01-30T06:02:09;19.60;;;9.63;;
7426;SDS011;3755;59.316;18.092;2024-01-30T06:04:38;19.17;;;9.47;;
7426;SDS011;3755;59.316;18.092;2024-01-30T06:07:05;16.20;;;8.43;;
7426;SDS011;3755;59.316;18.092;2024-01-30T06:09:33;19.67;;;8.90;;
7426;SDS011;3755;59.316;18.092;2024-01-30T06:12:03;17.27;;;8.40;;
7426;SDS011;3755;59.316;18.092;2024-01-30T06:14:31;32.90;;;7.57;;
7426;SDS011;3755;59.316;18.092;2024-01-30T06:17:03;22.80;;;8.10;;
7426;SDS011;3755;59.316;18.092;2024-01-30T06:19:30;41.20;;;9.07;;
7426;SDS011;3755;59.316;18.092;2024-01-30T06:21:58;25.17;;;7.97;;
7426;SDS011;3755;59.316;18.092;2024-01-30T06:24:26;25.20;;;8.80;;
7426;SDS011;3755;59.316;18.092;2024-01-30T06:26:54;33.60;;;7.07;;
7426;SDS011;3755;59.316;18.092;2024-01-30T06:29:21;30.27;;;8.33;;
7426;SDS011;3755;59.316;18.092;2024-01-30T06:31:51;36.07;;;8.57;;
7426;SDS011;3755;59.316;18.092;2024-01-30T06:34:19;24.40;;;7.60;;
7426;SDS011;3755;59.316;18.092;2024-01-30T06:36:46;49.20;;;8.47;;
7426;SDS011;3755;59.316;18.092;2024-01-30T06:39:15;35.80;;;8.03;;
7426;SDS011;3755;59.316;18.092;2024-01-30T06:41:42;45.83;;;8.50;;
7426;SDS011;3755;59.316;18.092;2024-01-30T06:44:09;48.10;;;7.63;;
7426;SDS011;3755;59.316;18.092;2024-01-30T06:46:36;27.87;;;7.37;;
7426;SDS011;3755;59.316;18.092;2024-01-30T06:49:03;31.63;;;7.80;;
7426;SDS011;3755;59.316;18.092;2024-01-30T06:51:30;19.13;;;5.83;;
7426;SDS011;3755;59.316;18.092;2024-01-30T06:53:58;22.77;;;6.53;;
7426;SDS011;3755;59.316;18.092;2024-01-30T06:56:26;18.13;;;6.13;;
7426;SDS011;3755;59.316;18.092;2024-01-30T06:58:54;15.53;;;6.53;;
7426;SDS011;3755;59.316;18.092;2024-01-30T07:01:27;12.03;;;6.03;;
7426;SDS011;3755;59.316;18.092;2024-01-30T07:03:55;13.40;;;6.13;;
7426;SDS011;3755;59.316;18.092;2024-01-30T07:06:22;14.30;;;7.07;;
7426;SDS011;3755;59.316;18.092;2024-01-30T07:08:49;13.70;;;7.20;;
7426;SDS011;3755;59.316;18.092;2024-01-30T07:11:18;13.73;;;6.47;;
7426;SDS011;3755;59.316;18.092;2024-01-30T07:13:48;17.33;;;7.17;;
7426;SDS011;3755;59.316;18.092;2024-01-30T07:16:16;14.90;;;7.37;;
7426;SDS011;3755;59.316;18.092;2024-01-30T07:18:43;14.83;;;6.63;;
7426;SDS011;3755;59.316;18.092;2024-01-30T07:21:11;19.57;;;6.83;;
7426;SDS011;3755;59.316;18.092;2024-01-30T07:23:38;24.53;;;7.50;;
7426;SDS011;3755;59.316;18.092;2024-01-30T07:26:05;19.40;;;7.43;;
7426;SDS011;3755;59.316;18.092;2024-01-30T07:28:33;22.37;;;7.87;;
7426;SDS011;3755;59.316;18.092;2024-01-30T07:31:02;24.40;;;8.03;;
7426;SDS011;3755;59.316;18.092;2024-01-30T07:33:30;28.30;;;7.80;;
7426;SDS011;3755;59.316;18.092;2024-01-30T07:35:57;77.37;;;9.07;;
7426;SDS011;3755;59.316;18.092;2024-01-30T07:38:24;42.77;;;10.17;;
7426;SDS011;3755;59.316;18.092;2024-01-30T07:40:51;44.80;;;8.87;;
7426;SDS011;3755;59.316;18.092;2024-01-30T07:43:19;29.20;;;7.90;;
7426;SDS011;3755;59.316;18.092;2024-01-30T07:45:46;41.23;;;8.00;;
7426;SDS011;3755;59.316;18.092;2024-01-30T07:48:16;28.07;;;7.33;;
7426;SDS011;3755;59.316;18.092;2024-01-30T07:50:43;24.87;;;7.07;;
7426;SDS011;3755;59.316;18.092;2024-01-30T07:53:10;41.47;;;8.90;;
7426;SDS011;3755;59.316;18.092;2024-01-30T07:55:56;31.27;;;6.83;;
7426;SDS011;3755;59.316;18.092;2024-01-30T07:58:23;13.03;;;5.57;;
7426;SDS011;3755;59.316;18.092;2024-01-30T08:00:52;10.40;;;5.20;;
7426;SDS011;3755;59.316;18.092;2024-01-30T08:03:21;12.40;;;5.53;;
7426;SDS011;3755;59.316;18.092;2024-01-30T08:05:48;11.77;;;5.50;;
7426;SDS011;3755;59.316;18.092;2024-01-30T08:08:15;15.07;;;5.93;;
7426;SDS011;3755;59.316;18.092;2024-01-30T08:10:44;11.70;;;6.10;;
7426;SDS011;3755;59.316;18.092;2024-01-30T08:13:11;11.30;;;5.60;;
7426;SDS011;3755;59.316;18.092;2024-01-30T08:15:38;10.67;;;5.87;;
7426;SDS011;3755;59.316;18.092;2024-01-30T08:18:05;14.80;;;6.03;;
7426;SDS011;3755;59.316;18.092;2024-01-30T08:20:34;9.47;;;5.50;;
7426;SDS011;3755;59.316;18.092;2024-01-30T08:23:01;12.03;;;5.63;;
7426;SDS011;3755;59.316;18.092;2024-01-30T08:25:28;13.57;;;5.97;;
7426;SDS011;3755;59.316;18.092;2024-01-30T08:27:55;13.97;;;5.80;;
7426;SDS011;3755;59.316;18.092;2024-01-30T08:30:22;12.33;;;5.90;;
7426;SDS011;3755;59.316;18.092;2024-01-30T08:32:50;11.53;;;5.53;;
7426;SDS011;3755;59.316;18.092;2024-01-30T08:35:17;11.30;;;5.60;;
7426;SDS011;3755;59.316;18.092;2024-01-30T08:37:45;15.20;;;6.10;;
7426;SDS011;3755;59.316;18.092;2024-01-30T08:40:13;13.53;;;6.00;;
7426;SDS011;3755;59.316;18.092;2024-01-30T08:42:40;11.87;;;6.60;;
7426;SDS011;3755;59.316;18.092;2024-01-30T08:45:07;11.83;;;5.70;;
7426;SDS011;3755;59.316;18.092;2024-01-30T08:47:35;12.87;;;6.33;;
7426;SDS011;3755;59.316;18.092;2024-01-30T08:50:03;12.40;;;5.80;;
7426;SDS011;3755;59.316;18.092;2024-01-30T08:52:30;11.63;;;5.40;;
7426;SDS011;3755;59.316;18.092;2024-01-30T08:54:59;12.77;;;5.83;;
7426;SDS011;3755;59.316;18.092;2024-01-30T08:57:26;11.30;;;6.50;;
7426;SDS011;3755;59.316;18.092;2024-01-30T08:59:54;12.87;;;6.10;;
7426;SDS011;3755;59.316;18.092;2024-01-30T09:02:21;10.20;;;5.40;;
7426;SDS011;3755;59.316;18.092;2024-01-30T09:04:49;13.50;;;6.30;;
7426;SDS011;3755;59.316;18.092;2024-01-30T09:07:16;8.37;;;5.33;;
7426;SDS011;3755;59.316;18.092;2024-01-30T09:09:43;14.53;;;6.20;;
7426;SDS011;3755;59.316;18.092;2024-01-30T09:12:12;12.67;;;5.83;;
7426;SDS011;3755;59.316;18.092;2024-01-30T09:14:39;12.17;;;6.40;;
7426;SDS011;3755;59.316;18.092;2024-01-30T09:17:06;12.87;;;6.20;;
7426;SDS011;3755;59.316;18.092;2024-01-30T09:19:34;13.13;;;6.23;;
7426;SDS011;3755;59.316;18.092;2024-01-30T09:22:01;15.67;;;6.43;;
7426;SDS011;3755;59.316;18.092;2024-01-30T09:24:28;15.47;;;7.33;;
7426;SDS011;3755;59.316;18.092;2024-01-30T09:26:55;13.53;;;6.13;;
7426;SDS011;3755;59.316;18.092;2024-01-30T09:29:24;12.83;;;6.30;;
7426;SDS011;3755;59.316;18.092;2024-01-30T09:31:51;10.00;;;5.50;;
7426;SDS011;3755;59.316;18.092;2024-01-30T09:34:18;15.27;;;7.03;;
7426;SDS011;3755;59.316;18.092;2024-01-30T09:36:45;13.23;;;6.53;;
7426;SDS011;3755;59.316;18.092;2024-01-30T09:39:13;14.93;;;6.57;;
7426;SDS011;3755;59.316;18.092;2024-01-30T09:41:42;14.13;;;5.53;;
7426;SDS011;3755;59.316;18.092;2024-01-30T09:44:14;13.80;;;6.53;;
7426;SDS011;3755;59.316;18.092;2024-01-30T09:46:44;13.77;;;6.83;;
7426;SDS011;3755;59.316;18.092;2024-01-30T09:49:14;17.73;;;8.77;;
7426;SDS011;3755;59.316;18.092;2024-01-30T09:51:43;19.50;;;9.43;;
7426;SDS011;3755;59.316;18.092;2024-01-30T09:54:13;14.97;;;6.60;;
7426;SDS011;3755;59.316;18.092;2024-01-30T09:56:41;16.57;;;7.37;;
7426;SDS011;3755;59.316;18.092;2024-01-30T09:59:08;15.80;;;6.07;;
7426;SDS011;3755;59.316;18.092;2024-01-30T10:01:36;15.50;;;7.10;;
7426;SDS011;3755;59.316;18.092;2024-01-30T10:04:05;18.77;;;6.90;;
7426;SDS011;3755;59.316;18.092;2024-01-30T10:06:33;14.70;;;6.80;;
7426;SDS011;3755;59.316;18.092;2024-01-30T10:09:01;15.73;;;8.53;;
7426;SDS011;3755;59.316;18.092;2024-01-30T10:11:28;14.53;;;6.87;;
7426;SDS011;3755;59.316;18.092;2024-01-30T10:13:55;13.60;;;6.73;;
7426;SDS011;3755;59.316;18.092;2024-01-30T10:16:23;18.27;;;7.77;;
7426;SDS011;3755;59.316;18.092;2024-01-30T10:18:50;15.07;;;7.03;;
7426;SDS011;3755;59.316;18.092;2024-01-30T10:21:18;16.43;;;6.93;;
7426;SDS011;3755;59.316;18.092;2024-01-30T10:23:46;14.97;;;7.50;;
7426;SDS011;3755;59.316;18.092;2024-01-30T10:26:15;18.90;;;7.97;;
7426;SDS011;3755;59.316;18.092;2024-01-30T10:28:43;14.37;;;7.07;;
7426;SDS011;3755;59.316;18.092;2024-01-30T10:31:10;17.00;;;7.40;;
7426;SDS011;3755;59.316;18.092;2024-01-30T10:33:37;16.80;;;7.60;;
7426;SDS011;3755;59.316;18.092;2024-01-30T10:36:37;19.50;;;7.87;;
7426;SDS011;3755;59.316;18.092;2024-01-30T10:39:07;15.20;;;7.63;;
7426;SDS011;3755;59.316;18.092;2024-01-30T10:41:43;17.17;;;7.50;;
7426;SDS011;3755;59.316;18.092;2024-01-30T10:44:10;21.90;;;7.93;;
7426;SDS011;3755;59.316;18.092;2024-01-30T10:46:38;13.83;;;7.57;;
7426;SDS011;3755;59.316;18.092;2024-01-30T10:49:08;16.97;;;7.60;;
7426;SDS011;3755;59.316;18.092;2024-01-30T10:51:37;16.03;;;7.53;;
7426;SDS011;3755;59.316;18.092;2024-01-30T10:54:05;15.23;;;7.10;;
7426;SDS011;3755;59.316;18.092;2024-01-30T10:56:33;14.67;;;7.37;;
7426;SDS011;3755;59.316;18.092;2024-01-30T10:59:01;14.37;;;6.53;;
7426;SDS011;3755;59.316;18.092;2024-01-30T11:01:28;15.30;;;6.90;;
7426;SDS011;3755;59.316;18.092;2024-01-30T11:03:56;20.07;;;7.77;;
7426;SDS011;3755;59.316;18.092;2024-01-30T11:06:24;13.70;;;7.30;;
7426;SDS011;3755;59.316;18.092;2024-01-30T11:09:02;15.53;;;7.77;;
7426;SDS011;3755;59.316;18.092;2024-01-30T11:11:46;16.80;;;7.73;;
7426;SDS011;3755;59.316;18.092;2024-01-30T11:14:15;13.67;;;7.27;;
7426;SDS011;3755;59.316;18.092;2024-01-30T11:16:42;16.93;;;7.87;;
7426;SDS011;3755;59.316;18.092;2024-01-30T11:19:10;22.17;;;9.10;;
7426;SDS011;3755;59.316;18.092;2024-01-30T11:21:40;19.50;;;9.53;;
7426;SDS011;3755;59.316;18.092;2024-01-30T11:24:09;18.17;;;8.73;;
7426;SDS011;3755;59.316;18.092;2024-01-30T11:26:39;17.75;;;9.60;;
7426;SDS011;3755;59.316;18.092;2024-01-30T11:29:08;22.77;;;9.53;;
7426;SDS011;3755;59.316;18.092;2024-01-30T11:31:35;22.63;;;9.83;;
7426;SDS011;3755;59.316;18.092;2024-01-30T11:34:04;19.13;;;9.53;;
7426;SDS011;3755;59.316;18.092;2024-01-30T11:36:32;21.43;;;9.57;;
7426;SDS011;3755;59.316;18.092;2024-01-30T11:39:02;22.33;;;9.50;;
7426;SDS011;3755;59.316;18.092;2024-01-30T11:41:31;26.60;;;10.83;;
7426;SDS011;3755;59.316;18.092;2024-01-30T11:43:59;21.40;;;10.13;;
7426;SDS011;3755;59.316;18.092;2024-01-30T11:46:26;25.10;;;10.47;;
7426;SDS011;3755;59.316;18.092;2024-01-30T11:48:53;25.93;;;10.73;;
7426;SDS011;3755;59.316;18.092;2024-01-30T11:51:20;21.57;;;9.90;;
7426;SDS011;3755;59.316;18.092;2024-01-30T11:53:49;22.27;;;11.20;;
7426;SDS011;3755;59.316;18.092;2024-01-30T11:56:17;21.33;;;10.17;;
7426;SDS011;3755;59.316;18.092;2024-01-30T11:58:51;22.87;;;10.30;;
7426;SDS011;3755;59.316;18.092;2024-01-30T12:01:18;21.70;;;10.60;;
7426;SDS011;3755;59.316;18.092;2024-01-30T12:03:49;22.40;;;9.90;;
7426;SDS011;3755;59.316;18.092;2024-01-30T12:06:16;18.63;;;9.70;;
7426;SDS011;3755;59.316;18.092;2024-01-30T12:08:54;25.63;;;10.57;;
7426;SDS011;3755;59.316;18.092;2024-01-30T12:11:23;23.97;;;10.63;;
7426;SDS011;3755;59.316;18.092;2024-01-30T12:13:52;22.70;;;10.00;;
7426;SDS011;3755;59.316;18.092;2024-01-30T12:16:19;18.70;;;10.53;;
7426;SDS011;3755;59.316;18.092;2024-01-30T12:18:47;19.93;;;10.20;;
7426;SDS011;3755;59.316;18.092;2024-01-30T12:21:16;23.80;;;10.10;;
7426;SDS011;3755;59.316;18.092;2024-01-30T12:23:43;17.57;;;9.33;;
7426;SDS011;3755;59.316;18.092;2024-01-30T12:26:11;21.85;;;10.52;;
7426;SDS011;3755;59.316;18.092;2024-01-30T12:28:47;23.53;;;10.83;;
7426;SDS011;3755;59.316;18.092;2024-01-30T12:31:16;20.30;;;10.77;;
7426;SDS011;3755;59.316;18.092;2024-01-30T12:33:43;21.87;;;10.83;;
7426;SDS011;3755;59.316;18.092;2024-01-30T12:36:11;20.83;;;10.20;;
7426;SDS011;3755;59.316;18.092;2024-01-30T12:38:38;23.53;;;11.20;;
7426;SDS011;3755;59.316;18.092;2024-01-30T12:41:07;19.73;;;9.93;;
7426;SDS011;3755;59.316;18.092;2024-01-30T12:43:35;16.90;;;9.37;;
7426;SDS011;3755;59.316;18.092;2024-01-30T12:46:04;20.87;;;10.47;;
7426;SDS011;3755;59.316;18.092;2024-01-30T12:48:33;18.53;;;8.93;;
7426;SDS011;3755;59.316;18.092;2024-01-30T12:51:00;19.50;;;10.27;;
7426;SDS011;3755;59.316;18.092;2024-01-30T12:53:27;19.60;;;10.93;;
7426;SDS011;3755;59.316;18.092;2024-01-30T12:55:54;25.80;;;12.63;;
7426;SDS011;3755;59.316;18.092;2024-01-30T12:58:21;21.03;;;11.83;;
7426;SDS011;3755;59.316;18.092;2024-01-30T13:00:48;23.13;;;11.70;;
7426;SDS011;3755;59.316;18.092;2024-01-30T13:03:15;16.53;;;9.77;;
7426;SDS011;3755;59.316;18.092;2024-01-30T13:05:44;19.50;;;10.10;;
7426;SDS011;3755;59.316;18.092;2024-01-30T13:08:11;17.10;;;9.47;;
7426;SDS011;3755;59.316;18.092;2024-01-30T13:10:38;20.47;;;9.73;;
7426;SDS011;3755;59.316;18.092;2024-01-30T13:13:05;21.40;;;10.67;;
7426;SDS011;3755;59.316;18.092;2024-01-30T13:15:32;18.20;;;10.37;;
7426;SDS011;3755;59.316;18.092;2024-01-30T13:17:59;22.83;;;11.70;;
7426;SDS011;3755;59.316;18.092;2024-01-30T13:20:26;24.70;;;12.83;;
7426;SDS011;3755;59.316;18.092;2024-01-30T13:22:54;26.77;;;12.40;;
7426;SDS011;3755;59.316;18.092;2024-01-30T13:25:22;19.63;;;9.83;;
7426;SDS011;3755;59.316;18.092;2024-01-30T13:27:49;22.43;;;10.83;;
7426;SDS011;3755;59.316;18.092;2024-01-30T13:30:16;20.13;;;9.83;;
7426;SDS011;3755;59.316;18.092;2024-01-30T13:32:44;16.97;;;9.70;;
7426;SDS011;3755;59.316;18.092;2024-01-30T13:35:12;15.83;;;8.30;;
7426;SDS011;3755;59.316;18.092;2024-01-30T13:37:39;16.23;;;8.13;;
7426;SDS011;3755;59.316;18.092;2024-01-30T13:40:09;16.63;;;8.23;;
7426;SDS011;3755;59.316;18.092;2024-01-30T13:42:38;17.77;;;8.53;;
7426;SDS011;3755;59.316;18.092;2024-01-30T13:45:05;16.33;;;8.40;;
7426;SDS011;3755;59.316;18.092;2024-01-30T13:47:34;16.30;;;8.70;;
7426;SDS011;3755;59.316;18.092;2024-01-30T13:50:03;17.20;;;8.37;;
7426;SDS011;3755;59.316;18.092;2024-01-30T13:52:31;15.77;;;8.03;;
7426;SDS011;3755;59.316;18.092;2024-01-30T13:54:58;12.43;;;7.50;;
7426;SDS011;3755;59.316;18.092;2024-01-30T13:57:26;17.07;;;9.03;;
7426;SDS011;3755;59.316;18.092;2024-01-30T13:59:54;14.40;;;7.90;;
7426;SDS011;3755;59.316;18.092;2024-01-30T14:02:22;15.57;;;8.20;;
7426;SDS011;3755;59.316;18.092;2024-01-30T14:04:49;14.33;;;7.97;;
7426;SDS011;3755;59.316;18.092;2024-01-30T14:07:16;16.53;;;8.50;;
7426;SDS011;3755;59.316;18.092;2024-01-30T14:09:44;15.80;;;7.87;;
7426;SDS011;3755;59.316;18.092;2024-01-30T14:12:12;14.53;;;7.93;;
7426;SDS011;3755;59.316;18.092;2024-01-30T14:14:42;16.67;;;8.90;;
7426;SDS011;3755;59.316;18.092;2024-01-30T14:17:09;15.50;;;8.77;;
7426;SDS011;3755;59.316;18.092;2024-01-30T14:19:37;19.07;;;9.70;;
7426;SDS011;3755;59.316;18.092;2024-01-30T14:22:04;18.47;;;9.20;;
7426;SDS011;3755;59.316;18.092;2024-01-30T14:24:33;15.57;;;8.20;;
7426;SDS011;3755;59.316;18.092;2024-01-30T14:27:02;17.97;;;9.13;;
7426;SDS011;3755;59.316;18.092;2024-01-30T14:29:29;19.00;;;9.17;;
7426;SDS011;3755;59.316;18.092;2024-01-30T14:31:58;17.73;;;9.53;;
7426;SDS011;3755;59.316;18.092;2024-01-30T14:34:25;22.50;;;9.63;;
7426;SDS011;3755;59.316;18.092;2024-01-30T14:36:52;20.83;;;9.07;;
7426;SDS011;3755;59.316;18.092;2024-01-30T14:39:19;18.33;;;8.70;;
7426;SDS011;3755;59.316;18.092;2024-01-30T14:41:47;20.80;;;10.23;;
7426;SDS011;3755;59.316;18.092;2024-01-30T14:44:14;18.07;;;8.40;;
7426;SDS011;3755;59.316;18.092;2024-01-30T14:46:41;16.97;;;8.70;;
7426;SDS011;3755;59.316;18.092;2024-01-30T14:49:10;17.13;;;8.50;;